2J3

Louisville Municipal Airport

Louisville, Georgia, USA
METAR K2J3 190035Z AUTO 10004KT 10SM BKN021 15/13 A3019 RMK AO2 T01470133
Observed Flight Rules
Nov-19 @ 00:35 UTC (28 minutes ago) Marginal Visual Flight Rules
Wind Visibility Clouds
100° at 4 knots 10 miles
  • Broken at 2,100' AGL
Temperatures Readings
Current 15°C / 59°F
Dewpoint 13°C / 55°F
Humidity 88%
Altimeter 30.19" Hg
Pressure 1022 hPa
Elevation 100
METAR K2J3 190035Z AUTO 10004KT 10SM BKN021 15/13 A3019 RMK AO2 T01470133
Observed Flight Rules
Nov-19 @ 00:35 UTC
(28 minutes ago)
MVFR
Wind Visibility
100° at 4 knots 10 miles
Clouds
  • Broken at 2,100' AGL
Temperature Dewpoint
15°C / 59°F 13°C / 55°F
Humidity Altimeter Pressure
88% 30.19" Hg 1022 hPa